Time;durP1;ratioP1;P1;durP2;ratioP2;P2;SDS_P1;SDS_P2;PMS_P1;PMS_P2;Temp;Humidity;BMP_temperature;BMP_pressure;BME280_temperature;BME280_humidity;BME280_pressure;Samples;Min_cycle;Max_cycle;Signal;HPM_P1;HPM_P2
2022/05/09 00:00:07;;;;;;;12.30;7.03;;;19.60;51.30;;;;;;5071123;28;20510;-87
2022/05/09 00:02:38;;;;;;;8.23;7.47;;;19.30;51.80;;;;;;5073995;28;20906;-88
2022/05/09 00:05:09;;;;;;;8.03;6.67;;;19.10;52.20;;;;;;5059919;28;20459;-87
2022/05/09 00:07:36;;;;;;;7.97;6.43;;;19.00;52.70;;;;;;5072057;28;20443;-88
2022/05/09 00:10:03;;;;;;;9.43;6.60;;;19.10;52.50;;;;;;5054422;28;20471;-87
2022/05/09 00:12:30;;;;;;;7.87;6.73;;;19.20;52.10;;;;;;5070713;28;20461;-87
2022/05/09 00:14:57;;;;;;;8.23;7.00;;;19.20;52.20;;;;;;5090841;28;20557;-87
2022/05/09 00:17:24;;;;;;;7.07;6.37;;;19.20;52.10;;;;;;5089720;28;20475;-87
2022/05/09 00:19:51;;;;;;;12.27;6.90;;;19.20;51.80;;;;;;5072065;28;20467;-87
2022/05/09 00:22:20;;;;;;;8.03;7.23;;;19.30;51.80;;;;;;5056140;28;20435;-87
2022/05/09 00:24:47;;;;;;;9.13;6.60;;;19.30;51.80;;;;;;5089940;28;20451;-88
2022/05/09 00:27:14;;;;;;;9.67;7.43;;;19.30;51.60;;;;;;5070290;28;20447;-87
2022/05/09 00:29:41;;;;;;;8.20;7.00;;;19.20;51.70;;;;;;5079727;28;20475;-87
2022/05/09 00:32:09;;;;;;;8.10;7.23;;;19.20;51.80;;;;;;5037443;28;20440;-87
2022/05/09 00:34:37;;;;;;;7.57;6.77;;;19.20;51.70;;;;;;5088839;28;20742;-87
2022/05/09 00:37:05;;;;;;;8.87;7.83;;;19.20;50.80;;;;;;5067338;28;20507;-87
2022/05/09 00:39:33;;;;;;;7.70;6.90;;;19.20;51.40;;;;;;5072595;28;20482;-87
2022/05/09 00:42:08;;;;;;;8.20;7.27;;;19.20;51.80;;;;;;5069434;28;20440;-87
2022/05/09 00:44:35;;;;;;;7.70;7.00;;;19.10;51.60;;;;;;5054414;28;20934;-87
2022/05/09 00:47:03;;;;;;;8.40;7.10;;;19.10;51.60;;;;;;5089664;28;20884;-87
2022/05/09 00:49:34;;;;;;;10.43;7.10;;;19.10;51.40;;;;;;5089540;28;21026;-87
2022/05/09 00:52:04;;;;;;;7.30;6.60;;;19.10;51.60;;;;;;5069563;28;20478;-87
2022/05/09 00:54:37;;;;;;;7.17;6.57;;;19.10;51.30;;;;;;5070380;28;20450;-87
2022/05/09 00:57:10;;;;;;;8.90;7.50;;;19.10;51.00;;;;;;5056684;28;20451;-87
2022/05/09 00:59:37;;;;;;;8.40;7.57;;;19.00;51.40;;;;;;5072460;28;20483;-88
2022/05/09 01:02:05;;;;;;;8.30;7.50;;;19.00;51.80;;;;;;5070322;28;20458;-87
2022/05/09 01:04:39;;;;;;;8.60;6.77;;;18.90;51.90;;;;;;5072260;28;20718;-87
2022/05/09 01:07:06;;;;;;;11.10;7.50;;;18.90;51.70;;;;;;5075010;28;20446;-87
2022/05/09 01:09:34;;;;;;;9.40;7.20;;;18.90;51.60;;;;;;5093338;28;20544;-87
2022/05/09 01:12:02;;;;;;;9.77;7.40;;;18.90;51.50;;;;;;5074369;28;20435;-87
2022/05/09 01:14:34;;;;;;;10.13;7.43;;;18.90;51.10;;;;;;5090472;28;20719;-87
2022/05/09 01:17:03;;;;;;;10.33;7.23;;;18.90;51.10;;;;;;5092720;28;20462;-87
2022/05/09 01:19:34;;;;;;;12.87;7.57;;;18.80;51.40;;;;;;5092866;28;20478;-88
2022/05/09 01:22:04;;;;;;;8.00;6.70;;;18.70;51.60;;;;;;5043867;28;20470;-87
2022/05/09 01:24:32;;;;;;;10.37;7.90;;;18.70;51.60;;;;;;5058222;28;21001;-88
2022/05/09 01:26:58;;;;;;;8.17;7.47;;;18.70;51.90;;;;;;5073425;28;20457;-87
2022/05/09 01:29:43;;;;;;;9.77;7.13;;;18.70;51.90;;;;;;5072520;28;20996;-87
2022/05/09 01:32:14;;;;;;;8.80;7.90;;;18.70;51.70;;;;;;5074054;28;20444;-87
2022/05/09 01:34:47;;;;;;;9.20;7.20;;;18.60;51.70;;;;;;5092599;28;20539;-87
2022/05/09 01:37:17;;;;;;;9.80;7.77;;;18.60;51.70;;;;;;5076751;28;20466;-87
2022/05/09 01:39:44;;;;;;;7.63;6.43;;;18.60;51.70;;;;;;5075480;28;20605;-87
2022/05/09 01:42:11;;;;;;;9.67;7.40;;;18.60;51.70;;;;;;5075195;28;20444;-88
2022/05/09 01:44:39;;;;;;;9.73;7.80;;;18.60;51.80;;;;;;5091769;28;20455;-87
2022/05/09 01:49:50;;;;;;;10.83;8.17;;;18.50;51.70;;;;;;5090442;28;20467;-87
2022/05/09 01:52:21;;;;;;;10.30;8.23;;;18.50;51.90;;;;;;5065395;28;20795;-87
2022/05/09 01:54:48;;;;;;;8.50;7.63;;;18.40;51.70;;;;;;5093401;28;20443;-88
2022/05/09 01:57:15;;;;;;;7.97;7.17;;;18.40;52.00;;;;;;5071776;28;20896;-87
2022/05/09 01:59:44;;;;;;;9.03;8.13;;;18.40;51.80;;;;;;5065815;28;20475;-87
2022/05/09 02:02:15;;;;;;;9.10;7.47;;;18.30;51.90;;;;;;5091599;28;20934;-87
2022/05/09 02:04:42;;;;;;;10.10;8.27;;;18.30;52.00;;;;;;5090252;28;20448;-87
2022/05/09 02:07:10;;;;;;;8.80;7.27;;;18.30;52.00;;;;;;5059643;28;20443;-86
2022/05/09 02:09:42;;;;;;;9.93;7.07;;;18.20;52.00;;;;;;5090828;28;20475;-87
2022/05/09 02:12:11;;;;;;;12.57;8.07;;;18.10;52.30;;;;;;5094476;28;20459;-87
2022/05/09 02:14:38;;;;;;;10.67;7.77;;;18.10;52.50;;;;;;5092522;28;20451;-88
2022/05/09 02:17:06;;;;;;;8.40;7.17;;;18.10;52.50;;;;;;5071196;28;20574;-88
2022/05/09 02:19:34;;;;;;;10.10;8.40;;;18.10;52.70;;;;;;5073236;28;21244;-87
2022/05/09 02:22:01;;;;;;;9.70;7.33;;;18.10;52.20;;;;;;5064657;28;20826;-87
2022/05/09 02:24:30;;;;;;;9.07;7.90;;;18.10;52.30;;;;;;5065167;28;20479;-87
2022/05/09 02:27:00;;;;;;;10.90;8.33;;;18.10;52.10;;;;;;5056131;28;20973;-87
2022/05/09 02:29:27;;;;;;;9.27;8.20;;;18.10;52.10;;;;;;5073521;28;20459;-87
2022/05/09 02:31:55;;;;;;;13.00;8.70;;;18.10;52.30;;;;;;5072343;28;20453;-87
2022/05/09 02:34:22;;;;;;;13.50;7.70;;;18.00;51.90;;;;;;5074477;28;20447;-87
2022/05/09 02:36:49;;;;;;;9.20;8.17;;;17.90;52.30;;;;;;5072187;28;20832;-87
2022/05/09 02:39:17;;;;;;;9.13;8.13;;;17.80;52.60;;;;;;5072458;28;20460;-87
2022/05/09 02:41:44;;;;;;;9.73;7.83;;;17.80;52.90;;;;;;5090533;28;20455;-89
2022/05/09 02:44:13;;;;;;;8.87;7.73;;;17.80;52.90;;;;;;5080238;28;20529;-87
2022/05/09 02:46:42;;;;;;;10.63;8.07;;;17.70;52.60;;;;;;5074757;28;20785;-88
2022/05/09 02:49:09;;;;;;;9.70;7.90;;;17.70;52.60;;;;;;5063729;28;20472;-87
2022/05/09 02:51:36;;;;;;;14.70;8.27;;;17.80;52.60;;;;;;5072867;28;20815;-88
2022/05/09 02:54:03;;;;;;;9.80;7.60;;;17.80;52.20;;;;;;5069994;28;20463;-87
2022/05/09 02:56:30;;;;;;;11.73;7.90;;;17.80;52.30;;;;;;5071871;28;20446;-87
2022/05/09 02:58:57;;;;;;;10.57;8.00;;;17.80;52.20;;;;;;5093092;28;20482;-87
2022/05/09 03:01:25;;;;;;;7.90;7.10;;;17.80;52.00;;;;;;5081119;28;21178;-89
2022/05/09 03:06:39;;;;;;;9.80;8.00;;;17.70;51.90;;;;;;5041587;28;20962;-87
2022/05/09 03:09:06;;;;;;;11.73;7.80;;;17.70;51.90;;;;;;5063002;28;20486;-87
2022/05/09 03:11:33;;;;;;;8.40;7.40;;;17.60;52.00;;;;;;5071621;28;21146;-88
2022/05/09 03:13:59;;;;;;;8.37;7.57;;;17.60;51.90;;;;;;5067320;28;20504;-87
2022/05/09 03:16:29;;;;;;;9.90;7.20;;;17.60;52.20;;;;;;5063001;28;21676;-87
2022/05/09 03:18:56;;;;;;;7.83;6.83;;;17.50;52.20;;;;;;5063182;28;20483;-87
2022/05/09 03:21:23;;;;;;;8.87;7.97;;;17.50;52.60;;;;;;5090554;28;20949;-87
2022/05/09 03:23:50;;;;;;;10.83;7.40;;;17.60;52.60;;;;;;5062191;28;20466;-88
2022/05/09 03:26:17;;;;;;;7.87;7.07;;;17.60;52.40;;;;;;5056985;28;20992;-89
2022/05/09 03:28:44;;;;;;;9.00;7.30;;;17.50;52.40;;;;;;5090193;28;20463;-88
2022/05/09 03:31:12;;;;;;;9.30;7.53;;;17.50;52.40;;;;;;5063122;28;20961;-87
2022/05/09 03:33:41;;;;;;;9.83;7.13;;;17.50;52.20;;;;;;5072923;28;20462;-87
2022/05/09 03:36:08;;;;;;;8.20;7.30;;;17.60;52.20;;;;;;5062809;28;20460;-87
2022/05/09 03:38:36;;;;;;;9.40;7.20;;;17.50;52.00;;;;;;5073975;28;20479;-87
2022/05/09 03:41:03;;;;;;;8.47;7.00;;;17.50;51.80;;;;;;5071494;28;20428;-88
2022/05/09 03:43:30;;;;;;;11.90;7.63;;;17.50;51.90;;;;;;5055429;28;20459;-88
2022/05/09 03:45:58;;;;;;;8.93;7.20;;;17.40;52.10;;;;;;5054806;28;20992;-87
2022/05/09 03:48:25;;;;;;;7.70;7.00;;;17.40;52.20;;;;;;5070360;28;20890;-87
2022/05/09 03:50:56;;;;;;;10.10;7.17;;;17.40;52.40;;;;;;5056679;28;20530;-87
2022/05/09 03:53:23;;;;;;;15.10;7.80;;;17.30;52.70;;;;;;5091906;28;20509;-87
2022/05/09 03:55:50;;;;;;;12.60;8.40;;;17.20;52.70;;;;;;5089356;28;20457;-87
2022/05/09 03:58:17;;;;;;;11.77;7.77;;;17.20;53.00;;;;;;5052336;28;20532;-87
2022/05/09 04:00:44;;;;;;;11.43;6.83;;;17.20;52.70;;;;;;5073845;28;20930;-87
2022/05/09 04:03:11;;;;;;;10.50;7.23;;;17.20;52.50;;;;;;5070148;28;20532;-87
2022/05/09 04:05:41;;;;;;;8.37;6.57;;;17.20;52.70;;;;;;5091444;28;20469;-87
2022/05/09 04:08:12;;;;;;;9.33;6.70;;;17.10;52.90;;;;;;5072399;28;20575;-87
2022/05/09 04:10:41;;;;;;;9.57;7.00;;;17.20;52.80;;;;;;5090576;28;20541;-87
2022/05/09 04:13:08;;;;;;;8.13;6.23;;;17.10;52.80;;;;;;5080245;28;20504;-88
2022/05/09 04:18:21;;;;;;;13.03;7.47;;;17.20;52.70;;;;;;5070458;28;20467;-87
2022/05/09 04:20:50;;;;;;;11.90;7.10;;;17.20;52.50;;;;;;5090886;28;20938;-87
2022/05/09 04:23:19;;;;;;;7.60;6.53;;;17.20;52.40;;;;;;5073217;28;20954;-87
2022/05/09 04:25:48;;;;;;;9.40;6.87;;;17.30;52.50;;;;;;5090194;28;20484;-89
2022/05/09 04:28:18;;;;;;;14.40;7.17;;;17.30;52.30;;;;;;5070963;28;20508;-88
2022/05/09 04:30:45;;;;;;;7.37;6.67;;;17.30;52.30;;;;;;5070849;28;20432;-87
2022/05/09 04:33:13;;;;;;;10.07;6.80;;;17.30;52.40;;;;;;5072673;28;20544;-87
2022/05/09 04:35:42;;;;;;;8.83;7.23;;;17.30;52.50;;;;;;5089580;28;21031;-88
2022/05/09 04:38:14;;;;;;;14.60;7.07;;;17.30;52.50;;;;;;5073285;28;20527;-86
2022/05/09 04:40:42;;;;;;;12.20;7.00;;;17.30;52.50;;;;;;5058899;28;20436;-88
2022/05/09 04:43:09;;;;;;;8.60;6.47;;;17.30;52.40;;;;;;5061803;28;20491;-87
2022/05/09 04:45:37;;;;;;;10.00;7.10;;;17.30;52.50;;;;;;5094124;28;20483;-87
2022/05/09 04:48:07;;;;;;;11.53;7.53;;;17.30;52.40;;;;;;5073306;28;20975;-87
2022/05/09 04:50:34;;;;;;;8.00;7.20;;;17.30;52.50;;;;;;5075826;28;20469;-87
2022/05/09 04:53:02;;;;;;;11.67;6.97;;;17.30;52.60;;;;;;5067372;28;20427;-87
2022/05/09 04:55:32;;;;;;;12.00;7.20;;;17.30;52.70;;;;;;5057011;28;20463;-88
2022/05/09 04:58:00;;;;;;;8.90;7.10;;;17.30;53.00;;;;;;5074022;28;20472;-87
2022/05/09 05:00:28;;;;;;;10.13;7.03;;;17.30;53.20;;;;;;5072884;28;20472;-87
2022/05/09 05:02:56;;;;;;;10.87;7.80;;;17.30;53.10;;;;;;5074156;28;20467;-87
2022/05/09 05:05:25;;;;;;;8.47;7.00;;;17.30;53.30;;;;;;5087591;28;20463;-86
2022/05/09 05:07:52;;;;;;;8.43;6.93;;;17.30;53.30;;;;;;5080094;28;20451;-85
2022/05/09 05:10:20;;;;;;;7.50;6.67;;;17.30;53.50;;;;;;5079529;28;20466;-87
2022/05/09 05:12:47;;;;;;;8.50;6.70;;;17.30;53.50;;;;;;5089402;28;20453;-86
2022/05/09 05:15:16;;;;;;;10.30;7.33;;;17.30;53.70;;;;;;5065038;28;20474;-86
2022/05/09 05:17:43;;;;;;;10.07;7.80;;;17.30;53.70;;;;;;5061989;28;20467;-86
2022/05/09 05:20:13;;;;;;;11.60;8.47;;;17.40;54.10;;;;;;5058774;28;21319;-86
2022/05/09 05:22:42;;;;;;;10.53;8.40;;;17.40;54.00;;;;;;5073513;28;20458;-86
2022/05/09 05:25:11;;;;;;;10.07;7.73;;;17.40;54.00;;;;;;5070548;28;20459;-87
2022/05/09 05:27:38;;;;;;;8.53;7.53;;;17.40;54.10;;;;;;5062526;28;20443;-87
2022/05/09 05:30:08;;;;;;;10.77;7.43;;;17.50;54.10;;;;;;5087120;28;21204;-87
2022/05/09 05:32:39;;;;;;;8.63;7.30;;;17.60;54.10;;;;;;5089462;28;20540;-86
2022/05/09 05:35:08;;;;;;;7.60;6.90;;;17.60;54.30;;;;;;5060232;28;20454;-86
2022/05/09 05:37:35;;;;;;;9.30;6.90;;;17.60;54.20;;;;;;5090632;28;20471;-86
2022/05/09 05:40:02;;;;;;;8.37;7.10;;;17.70;54.10;;;;;;5088201;28;20471;-87
2022/05/09 05:42:30;;;;;;;10.30;7.00;;;17.70;54.70;;;;;;5089946;28;20451;-87
2022/05/09 05:44:57;;;;;;;7.87;6.77;;;17.70;53.80;;;;;;5088288;28;20456;-88
2022/05/09 05:47:24;;;;;;;11.77;6.87;;;17.80;53.80;;;;;;5087370;28;20517;-87
2022/05/09 05:49:53;;;;;;;10.93;7.03;;;17.80;54.10;;;;;;5033257;28;20482;-87
2022/05/09 05:52:21;;;;;;;9.93;6.93;;;17.90;53.90;;;;;;5051525;28;20520;-86
2022/05/09 05:54:48;;;;;;;7.00;6.37;;;17.90;54.10;;;;;;5069526;28;21034;-87
2022/05/09 05:57:20;;;;;;;10.60;6.80;;;18.00;54.80;;;;;;5053852;28;20462;-87
2022/05/09 05:59:52;;;;;;;8.77;5.60;;;18.10;54.00;;;;;;5040466;28;21169;-87
2022/05/09 06:02:19;;;;;;;8.63;6.40;;;18.10;53.60;;;;;;5088990;28;20439;-86
2022/05/09 06:04:47;;;;;;;9.93;6.20;;;18.30;53.80;;;;;;5054391;28;20443;-87
2022/05/09 06:07:16;;;;;;;8.30;6.20;;;18.30;53.50;;;;;;5062619;28;20989;-87
2022/05/09 06:09:45;;;;;;;6.30;5.60;;;18.40;53.30;;;;;;5072595;28;20475;-87
2022/05/09 06:12:14;;;;;;;7.60;5.27;;;18.40;53.20;;;;;;5069205;28;20444;-87
2022/05/09 06:14:41;;;;;;;6.47;5.23;;;18.40;52.70;;;;;;5068906;28;20447;-86
2022/05/09 06:17:10;;;;;;;9.60;5.30;;;18.50;53.00;;;;;;5070663;28;20462;-87
2022/05/09 06:19:38;;;;;;;6.97;5.33;;;18.50;52.90;;;;;;5078295;28;20482;-87
2022/05/09 06:22:07;;;;;;;10.00;5.53;;;18.60;53.00;;;;;;5087571;28;20440;-87
2022/05/09 06:24:35;;;;;;;5.00;4.50;;;18.70;52.70;;;;;;5052688;28;20448;-87
2022/05/09 06:27:03;;;;;;;7.53;5.60;;;18.90;52.70;;;;;;5070668;28;20989;-88
2022/05/09 06:29:30;;;;;;;5.40;4.43;;;19.00;52.40;;;;;;5085876;28;20887;-86
2022/05/09 06:31:59;;;;;;;5.80;4.60;;;19.10;51.90;;;;;;5068871;28;20992;-86
2022/05/09 06:34:26;;;;;;;11.30;3.90;;;19.20;51.50;;;;;;5072330;28;20631;-86
2022/05/09 06:36:53;;;;;;;5.60;4.70;;;19.30;51.10;;;;;;5051636;28;20448;-86
2022/05/09 06:39:19;;;;;;;5.70;4.50;;;19.40;51.40;;;;;;5087381;28;20478;-86
2022/05/09 06:41:48;;;;;;;6.50;4.23;;;19.50;51.50;;;;;;5075507;28;20782;-87
2022/05/09 06:44:15;;;;;;;9.00;3.87;;;19.70;51.80;;;;;;5085741;28;20439;-86
2022/05/09 06:46:41;;;;;;;4.70;3.63;;;19.80;50.70;;;;;;5051037;28;20447;-87
2022/05/09 06:49:08;;;;;;;5.20;3.30;;;19.90;50.50;;;;;;5074809;28;20527;-86
2022/05/09 06:51:35;;;;;;;6.13;3.47;;;19.90;49.30;;;;;;5069631;28;20458;-87
2022/05/09 06:54:03;;;;;;;9.00;3.90;;;20.00;49.50;;;;;;5053869;28;20459;-87
2022/05/09 06:56:30;;;;;;;4.40;3.40;;;20.10;49.70;;;;;;5073616;28;21043;-88
2022/05/09 06:58:58;;;;;;;3.90;2.97;;;20.20;48.40;;;;;;5086952;28;20482;-86
2022/05/09 07:01:25;;;;;;;5.67;3.40;;;20.20;47.10;;;;;;5068375;28;20478;-87
2022/05/09 07:03:52;;;;;;;4.20;2.73;;;20.10;48.50;;;;;;5058222;28;20466;-87
2022/05/09 07:06:19;;;;;;;5.00;2.90;;;20.20;48.70;;;;;;5052656;28;20470;-86
2022/05/09 07:08:46;;;;;;;3.23;2.30;;;20.30;47.40;;;;;;5060496;28;20540;-87
2022/05/09 07:11:13;;;;;;;2.50;2.30;;;20.30;47.60;;;;;;5066807;28;20474;-87
2022/05/09 07:13:41;;;;;;;4.57;2.37;;;20.50;47.10;;;;;;5069380;28;20523;-87
2022/05/09 07:16:11;;;;;;;9.40;2.77;;;20.60;46.70;;;;;;5073484;28;20461;-86
2022/05/09 07:18:39;;;;;;;4.20;2.50;;;20.60;46.80;;;;;;5088605;28;20480;-86
2022/05/09 07:21:06;;;;;;;5.67;2.53;;;20.70;46.50;;;;;;5041246;28;21184;-87
2022/05/09 07:23:34;;;;;;;7.33;2.90;;;20.60;46.30;;;;;;5088737;28;20431;-87
2022/05/09 07:26:02;;;;;;;7.93;2.60;;;20.40;45.60;;;;;;5066662;28;20978;-87
2022/05/09 07:28:29;;;;;;;3.27;2.40;;;20.40;45.90;;;;;;5059373;28;20471;-87
2022/05/09 07:30:57;;;;;;;4.00;2.33;;;20.70;46.50;;;;;;5085428;28;20443;-87
2022/05/09 07:33:27;;;;;;;3.93;2.27;;;20.70;45.60;;;;;;5086303;28;20481;-87
2022/05/09 07:35:54;;;;;;;5.37;2.30;;;20.70;45.90;;;;;;5067375;28;20546;-88
2022/05/09 07:38:21;;;;;;;3.07;2.27;;;20.90;45.40;;;;;;5059340;28;20537;-88
2022/05/09 07:40:49;;;;;;;5.17;2.20;;;21.00;45.90;;;;;;5055643;28;20447;-87
2022/05/09 07:43:18;;;;;;;4.03;2.83;;;21.00;45.10;;;;;;5074179;28;20627;-87
2022/05/09 07:45:47;;;;;;;7.20;3.53;;;21.00;45.00;;;;;;5070812;28;20447;-87
2022/05/09 07:48:16;;;;;;;2.77;2.30;;;21.20;44.70;;;;;;5087670;28;20557;-87
2022/05/09 07:50:44;;;;;;;4.57;3.20;;;21.20;45.10;;;;;;5069189;28;20475;-87
2022/05/09 07:53:15;;;;;;;5.97;3.03;;;21.40;46.00;;;;;;5083992;28;20444;-87
2022/05/09 07:55:43;;;;;;;5.37;3.37;;;21.70;45.50;;;;;;5078082;28;20466;-87
2022/05/09 07:58:14;;;;;;;8.50;4.00;;;21.60;44.50;;;;;;5050422;28;20491;-87
2022/05/09 08:00:43;;;;;;;7.43;3.10;;;21.60;45.50;;;;;;5088554;28;20459;-87
2022/05/09 08:03:15;;;;;;;6.83;3.90;;;21.60;45.00;;;;;;5086800;28;20447;-86
2022/05/09 08:05:43;;;;;;;3.70;3.40;;;21.80;46.10;;;;;;5076502;28;20462;-87
2022/05/09 08:08:12;;;;;;;4.87;3.73;;;22.00;44.90;;;;;;5067181;28;20849;-87
2022/05/09 08:10:40;;;;;;;4.27;3.00;;;21.90;44.30;;;;;;5085848;28;20535;-87
2022/05/09 08:13:08;;;;;;;9.37;4.20;;;22.10;44.30;;;;;;5066955;28;20500;-87
2022/05/09 08:15:36;;;;;;;7.43;3.20;;;22.00;46.20;;;;;;5086899;28;20468;-87
2022/05/09 08:18:05;;;;;;;3.53;3.23;;;22.00;45.10;;;;;;5084397;28;20842;-88
2022/05/09 08:20:33;;;;;;;5.50;3.40;;;22.00;45.10;;;;;;5051968;28;20448;-87
2022/05/09 08:23:03;;;;;;;13.10;7.00;;;22.20;45.20;;;;;;5059053;28;20878;-87
2022/05/09 08:25:31;;;;;;;9.50;4.80;;;22.40;45.30;;;;;;5086117;28;20515;-87
2022/05/09 08:27:58;;;;;;;6.40;4.07;;;22.60;44.20;;;;;;5043883;28;20450;-87
2022/05/09 08:30:32;;;;;;;7.03;4.73;;;22.60;44.50;;;;;;5066864;28;20986;-88
2022/05/09 08:33:10;;;;;;;4.70;4.23;;;22.50;44.50;;;;;;5065110;28;20513;-87
2022/05/09 08:35:37;;;;;;;6.80;4.27;;;22.70;45.20;;;;;;5087947;28;20449;-87
2022/05/09 08:38:06;;;;;;;5.07;4.67;;;22.60;44.00;;;;;;5057657;28;20459;-86
2022/05/09 08:40:35;;;;;;;8.90;5.47;;;22.70;44.80;;;;;;5066382;28;20902;-86
2022/05/09 08:43:11;;;;;;;8.10;4.47;;;22.90;44.20;;;;;;5069106;28;20526;-87
2022/05/09 08:45:46;;;;;;;4.10;3.70;;;23.00;43.90;;;;;;5070049;28;20439;-86
2022/05/09 08:48:35;;;;;;;9.97;5.67;;;23.20;44.70;;;;;;5049532;28;20470;-87
2022/05/09 08:51:20;;;;;;;6.50;5.40;;;23.10;43.50;;;;;;5086445;28;20849;-87
2022/05/09 08:53:55;;;;;;;8.20;4.37;;;23.10;44.90;;;;;;5069011;28;20439;-86
2022/05/09 08:56:23;;;;;;;7.13;5.30;;;23.40;43.50;;;;;;5069851;28;20942;-87
2022/05/09 08:58:55;;;;;;;7.40;5.30;;;23.60;44.00;;;;;;5062687;28;20577;-86
2022/05/09 09:01:32;;;;;;;8.20;5.10;;;23.60;42.20;;;;;;5077845;28;20670;-86
2022/05/09 09:04:01;;;;;;;5.30;4.30;;;23.50;42.80;;;;;;5068367;28;20663;-86
2022/05/09 09:06:48;;;;;;;10.23;4.60;;;23.60;43.00;;;;;;5072344;28;21016;-88
2022/05/09 09:09:28;;;;;;;9.67;5.23;;;23.80;42.40;;;;;;5050308;28;20654;-87
2022/05/09 09:12:02;;;;;;;7.23;4.80;;;23.80;42.30;;;;;;5069528;28;20438;-87
2022/05/09 09:14:40;;;;;;;7.23;4.60;;;23.80;42.40;;;;;;5072286;28;20977;-87
2022/05/09 09:17:18;;;;;;;7.73;5.60;;;23.80;43.40;;;;;;5062440;28;20978;-87
2022/05/09 09:20:04;;;;;;;5.10;4.30;;;24.00;42.40;;;;;;5089552;28;21159;-87
2022/05/09 09:22:57;;;;;;;8.10;4.10;;;24.20;42.30;;;;;;5088479;28;20505;-87
2022/05/09 09:25:40;;;;;;;8.90;4.27;;;24.60;42.40;;;;;;5054818;28;20444;-86
2022/05/09 09:28:11;;;;;;;4.00;3.70;;;24.80;41.10;;;;;;5070987;28;20489;-87
2022/05/09 09:30:40;;;;;;;4.40;3.80;;;25.20;41.40;;;;;;5091495;28;20453;-87
2022/05/09 09:33:10;;;;;;;5.77;4.23;;;25.30;40.60;;;;;;5093188;28;20446;-87
2022/05/09 09:35:57;;;;;;;4.60;3.90;;;25.00;40.30;;;;;;5093865;28;20446;-87
2022/05/09 09:38:36;;;;;;;8.10;4.70;;;25.10;40.80;;;;;;5073709;28;21043;-87
2022/05/09 09:41:20;;;;;;;6.67;3.93;;;25.40;40.70;;;;;;5094111;28;20435;-87
2022/05/09 09:43:48;;;;;;;6.03;4.07;;;25.50;39.80;;;;;;5093912;28;20459;-87
2022/05/09 09:46:18;;;;;;;5.40;4.20;;;25.50;40.60;;;;;;5057688;28;20455;-87
2022/05/09 09:48:46;;;;;;;7.77;4.53;;;25.70;41.60;;;;;;5049101;28;20470;-87
2022/05/09 09:51:17;;;;;;;6.20;3.93;;;25.90;39.90;;;;;;5090371;28;20521;-87
2022/05/09 09:54:01;;;;;;;6.03;4.67;;;26.10;38.70;;;;;;5092852;28;21095;-87
2022/05/09 09:56:32;;;;;;;3.97;3.53;;;26.00;38.90;;;;;;5058377;28;20432;-87
2022/05/09 09:59:18;;;;;;;3.33;3.13;;;26.40;40.20;;;;;;5089427;28;20483;-87
2022/05/09 10:02:02;;;;;;;4.63;4.23;;;26.70;40.20;;;;;;5090189;28;20432;-86
2022/05/09 10:04:30;;;;;;;5.10;4.50;;;26.70;36.70;;;;;;5086369;28;21928;-86
2022/05/09 10:07:01;;;;;;;6.70;4.17;;;26.70;36.90;;;;;;5088835;28;20455;-88
2022/05/09 10:09:29;;;;;;;5.10;4.43;;;27.00;36.70;;;;;;5087402;28;20500;-88
2022/05/09 10:12:15;;;;;;;6.90;4.13;;;27.10;38.00;;;;;;5088142;28;21135;-88
2022/05/09 10:14:43;;;;;;;5.90;4.20;;;27.30;36.70;;;;;;5075980;28;20549;-86
2022/05/09 10:17:20;;;;;;;6.90;4.80;;;27.10;36.20;;;;;;5070857;28;20481;-86
2022/05/09 10:19:48;;;;;;;4.67;4.23;;;27.40;36.10;;;;;;5086922;28;20591;-88
2022/05/09 10:25:11;;;;;;;4.47;3.83;;;27.50;36.20;;;;;;5088695;28;20534;-88
2022/05/09 10:27:40;;;;;;;5.03;4.70;;;27.40;35.80;;;;;;5086964;28;20444;-89
2022/05/09 10:30:30;;;;;;;4.60;3.97;;;27.40;34.20;;;;;;5088137;28;21189;-88
2022/05/09 10:33:01;;;;;;;4.20;3.80;;;27.30;33.70;;;;;;5067316;28;20442;-88
2022/05/09 10:35:33;;;;;;;4.07;3.67;;;27.30;34.50;;;;;;5087085;28;20439;-87
2022/05/09 10:38:03;;;;;;;5.00;3.83;;;27.10;35.00;;;;;;5070515;28;20448;-89
2022/05/09 10:40:34;;;;;;;5.00;3.73;;;27.40;36.70;;;;;;5060358;28;20482;-87
2022/05/09 10:43:05;;;;;;;4.57;3.60;;;27.20;35.10;;;;;;5087728;28;20530;-88
2022/05/09 10:45:38;;;;;;;4.50;3.80;;;27.30;35.60;;;;;;5089763;28;20439;-87
2022/05/09 10:48:11;;;;;;;4.10;3.70;;;27.60;35.40;;;;;;5056016;28;20465;-87
2022/05/09 10:50:49;;;;;;;4.50;4.03;;;27.40;33.40;;;;;;5070243;28;20971;-87
2022/05/09 10:53:29;;;;;;;5.60;4.10;;;27.50;34.70;;;;;;5086435;28;20446;-87
2022/05/09 10:56:05;;;;;;;4.83;3.43;;;27.80;34.60;;;;;;5086388;28;20443;-87
2022/05/09 10:58:41;;;;;;;3.93;3.60;;;27.90;33.90;;;;;;5053283;28;21170;-87
2022/05/09 11:01:12;;;;;;;4.33;3.47;;;27.90;33.30;;;;;;5068912;28;20458;-87
2022/05/09 11:03:39;;;;;;;5.03;3.47;;;27.90;33.10;;;;;;5088116;28;20807;-88
2022/05/09 11:06:29;;;;;;;5.30;3.40;;;28.10;33.80;;;;;;5067491;28;20859;-87
2022/05/09 11:09:10;;;;;;;5.30;3.63;;;28.50;32.80;;;;;;5088176;28;20502;-87
2022/05/09 11:11:46;;;;;;;5.33;3.40;;;28.50;33.50;;;;;;5073756;28;20838;-88
2022/05/09 11:14:22;;;;;;;3.77;3.47;;;28.40;32.20;;;;;;5066565;28;20482;-90
2022/05/09 11:17:13;;;;;;;3.50;3.20;;;28.50;33.60;;;;;;5051751;28;20451;-89
2022/05/09 11:19:56;;;;;;;3.83;3.20;;;28.80;31.50;;;;;;5059466;28;20475;-89
2022/05/09 11:22:30;;;;;;;6.10;3.53;;;29.00;31.10;;;;;;5037408;28;20993;-87
2022/05/09 11:25:07;;;;;;;4.53;3.57;;;29.10;31.00;;;;;;5067969;28;21249;-87
2022/05/09 11:27:48;;;;;;;3.90;3.50;;;29.30;30.80;;;;;;5069322;28;20450;-87
2022/05/09 11:30:27;;;;;;;5.47;3.90;;;29.50;30.90;;;;;;5059271;28;20471;-86
2022/05/09 11:33:07;;;;;;;4.40;3.73;;;29.40;29.60;;;;;;5071897;28;20438;-87
2022/05/09 11:35:36;;;;;;;4.00;3.60;;;29.40;30.00;;;;;;5085642;28;20505;-88
2022/05/09 11:38:37;;;;;;;4.13;3.40;;;29.30;30.20;;;;;;5061867;28;20536;-88
2022/05/09 11:41:21;;;;;;;5.43;3.43;;;29.20;29.40;;;;;;5012336;28;20482;-88
2022/05/09 11:44:05;;;;;;;5.90;3.37;;;29.20;30.80;;;;;;5069141;28;20837;-87
2022/05/09 11:46:44;;;;;;;4.00;3.40;;;29.40;30.20;;;;;;5087063;28;20517;-87
2022/05/09 11:49:25;;;;;;;3.70;3.40;;;29.50;29.20;;;;;;5067911;28;20487;-88
2022/05/09 11:51:54;;;;;;;3.63;3.30;;;29.60;29.80;;;;;;5076243;28;21217;-90
2022/05/09 11:54:24;;;;;;;3.60;3.30;;;29.10;30.10;;;;;;5067839;28;20757;-88
2022/05/09 11:56:55;;;;;;;4.27;3.87;;;29.00;30.70;;;;;;5087877;28;20448;-86
2022/05/09 11:59:26;;;;;;;5.00;3.70;;;28.90;30.30;;;;;;5086417;28;20981;-88
2022/05/09 12:01:56;;;;;;;3.50;3.30;;;29.10;30.10;;;;;;5075191;28;20535;-89
2022/05/09 12:04:34;;;;;;;5.03;4.50;;;29.20;31.00;;;;;;5052051;28;20448;-89
2022/05/09 12:07:02;;;;;;;5.53;3.93;;;29.60;29.70;;;;;;5067323;28;20447;-89
2022/05/09 12:09:55;;;;;;;4.23;3.83;;;29.40;30.00;;;;;;5083488;28;20463;-86
2022/05/09 12:12:44;;;;;;;4.40;4.00;;;29.10;30.00;;;;;;5065706;28;20444;-88
2022/05/09 12:15:43;;;;;;;5.20;3.90;;;29.50;29.70;;;;;;5053603;28;21420;-88
2022/05/09 12:18:19;;;;;;;6.43;3.43;;;29.60;29.70;;;;;;5067319;28;21250;-87
2022/05/09 12:21:14;;;;;;;5.00;3.67;;;29.50;29.50;;;;;;5055495;28;20459;-89
2022/05/09 12:24:06;;;;;;;3.50;3.20;;;29.30;29.80;;;;;;5069235;28;20652;-89
2022/05/09 12:26:35;;;;;;;5.03;3.90;;;29.10;30.00;;;;;;5067929;28;21162;-88
2022/05/09 12:29:50;;;;;;;4.70;4.20;;;28.90;31.30;;;;;;5058860;28;20471;-88
2022/05/09 12:32:17;;;;;;;4.47;3.83;;;29.40;31.00;;;;;;5069131;28;20435;-89
2022/05/09 12:34:47;;;;;;;7.87;4.13;;;29.50;30.20;;;;;;5085461;28;20452;-88
2022/05/09 12:37:20;;;;;;;4.77;4.17;;;29.20;30.00;;;;;;5085975;28;20447;-88
2022/05/09 12:39:49;;;;;;;5.00;4.23;;;29.10;30.60;;;;;;5076114;28;20565;-89
2022/05/09 12:42:32;;;;;;;6.40;3.50;;;29.20;30.20;;;;;;5069633;28;20457;-87
2022/05/09 12:45:03;;;;;;;4.03;3.70;;;29.10;30.00;;;;;;5085643;28;20450;-88
2022/05/09 12:47:34;;;;;;;4.20;3.80;;;29.30;31.70;;;;;;5067507;28;21572;-88
2022/05/09 12:50:06;;;;;;;4.73;3.90;;;29.50;29.80;;;;;;5070592;28;20458;-87
2022/05/09 12:52:36;;;;;;;5.47;3.97;;;29.60;29.70;;;;;;5054389;28;20443;-87
2022/05/09 12:57:59;;;;;;;4.07;3.60;;;29.20;30.00;;;;;;5046319;28;20451;-88
2022/05/09 13:00:30;;;;;;;6.87;3.77;;;28.30;31.50;;;;;;5087072;28;20479;-88
2022/05/09 13:03:05;;;;;;;4.13;3.83;;;28.40;32.60;;;;;;5071857;28;20462;-89
2022/05/09 13:05:36;;;;;;;5.00;4.47;;;28.80;32.30;;;;;;5089230;28;20455;-87
2022/05/09 13:08:06;;;;;;;4.93;3.30;;;29.40;32.30;;;;;;5071125;28;20446;-85
2022/05/09 13:10:45;;;;;;;3.60;3.30;;;30.00;30.20;;;;;;5070457;28;20442;-85
2022/05/09 13:13:26;;;;;;;5.73;4.20;;;30.50;29.40;;;;;;5074040;28;21298;-85
2022/05/09 13:15:53;;;;;;;4.53;4.13;;;30.80;29.50;;;;;;5089680;28;20546;-84
2022/05/09 13:18:23;;;;;;;6.00;3.80;;;30.80;28.60;;;;;;5055445;28;20486;-87